Time;durP1;ratioP1;P1;durP2;ratioP2;P2;SDS_P1;SDS_P2;PMS_P1;PMS_P2;Temp;Humidity;BMP_temperature;BMP_pressure;BME280_temperature;BME280_humidity;BME280_pressure;Samples;Min_cycle;Max_cycle;Signal;HPM_P1;HPM_P2
2023/01/10 00:00:59;;;;;;;1.43;0.40;;;9.80;69.90;9.60;95887.00;;;;5089897;28;20215;-79
2023/01/10 00:03:32;;;;;;;1.07;0.30;;;9.80;70.00;9.60;95895.00;;;;5086507;28;20324;-80
2023/01/10 00:05:59;;;;;;;0.50;0.40;;;9.80;69.90;9.60;95898.00;;;;5087223;28;20238;-80
2023/01/10 00:08:36;;;;;;;9.30;0.93;;;9.80;69.90;9.60;95903.00;;;;5085868;28;20230;-80
2023/01/10 00:13:22;;;;;;;5.67;0.90;;;9.80;69.90;9.60;95901.00;;;;5090853;28;20275;-80
2023/01/10 00:13:58;;;;;;;0.50;0.50;;;9.80;70.00;9.60;95902.00;;;;5093657;28;20282;-80
2023/01/10 00:16:28;;;;;;;0.50;0.30;;;9.80;70.00;9.60;95914.00;;;;5085912;28;20221;-80
2023/01/10 00:19:03;;;;;;;0.63;0.30;;;9.80;70.00;9.60;95918.00;;;;5093033;28;20662;-80
2023/01/10 00:21:38;;;;;;;2.30;0.53;;;9.80;70.10;9.70;95919.00;;;;5090468;28;20631;-80
2023/01/10 00:24:19;;;;;;;0.77;0.40;;;9.80;70.10;9.70;95913.00;;;;5087566;28;20202;-80
2023/01/10 00:26:58;;;;;;;1.17;0.30;;;9.80;70.20;9.70;95913.00;;;;5086952;28;20210;-80
2023/01/10 00:29:36;;;;;;;0.83;0.30;;;9.80;70.20;9.70;95922.00;;;;5088263;28;20210;-80
2023/01/10 00:32:11;;;;;;;0.70;0.50;;;9.80;70.20;9.70;95924.00;;;;5089097;28;20223;-80
2023/01/10 00:34:41;;;;;;;0.83;0.50;;;9.80;70.10;9.70;95931.00;;;;5087864;28;20268;-80
2023/01/10 00:37:09;;;;;;;0.40;0.40;;;9.80;70.00;9.60;95929.00;;;;5095844;28;20253;-81
2023/01/10 00:39:37;;;;;;;0.40;0.30;;;9.80;69.90;9.60;95938.00;;;;5103843;28;20219;-80
2023/01/10 00:44:57;;;;;;;0.33;0.33;;;9.80;69.80;9.50;95947.00;;;;5084285;28;20249;-80
2023/01/10 00:47:24;;;;;;;0.30;0.30;;;9.70;69.70;9.50;95959.00;;;;5089935;28;20261;-80
2023/01/10 00:50:03;;;;;;;11.53;1.03;;;9.80;69.80;9.50;95962.00;;;;5086629;28;20211;-80
2023/01/10 00:52:32;;;;;;;3.47;0.40;;;9.70;69.90;9.50;95961.00;;;;5090101;28;20225;-80
2023/01/10 00:55:09;;;;;;;0.50;0.40;;;9.70;70.00;9.50;95961.00;;;;5085526;28;20606;-80
2023/01/10 00:57:41;;;;;;;3.60;1.03;;;9.70;69.90;9.50;95973.00;;;;5087097;28;20248;-80
2023/01/10 01:00:11;;;;;;;0.43;0.43;;;9.70;69.90;9.50;95981.00;;;;5094538;28;20268;-80
2023/01/10 01:02:42;;;;;;;0.67;0.30;;;9.70;69.90;9.50;95992.00;;;;5101950;28;20878;-80
2023/01/10 01:05:15;;;;;;;0.43;0.43;;;9.70;69.90;9.50;95986.00;;;;5087278;28;20577;-80
2023/01/10 01:07:44;;;;;;;0.40;0.40;;;9.70;69.80;9.50;95984.00;;;;5085563;28;20677;-80
2023/01/10 01:10:31;;;;;;;0.30;0.30;;;9.70;69.80;9.50;95986.00;;;;5090970;28;20239;-80
2023/01/10 01:13:08;;;;;;;0.73;0.40;;;9.70;69.80;9.50;95999.00;;;;5086891;28;20303;-80
2023/01/10 01:15:47;;;;;;;0.83;0.40;;;9.70;69.70;9.50;96003.00;;;;5085461;28;20195;-81
2023/01/10 01:18:22;;;;;;;1.33;0.43;;;9.70;69.80;9.60;96005.00;;;;5088011;28;20191;-81
2023/01/10 01:20:56;;;;;;;1.03;0.43;;;9.70;69.80;9.60;96015.00;;;;5090683;28;20299;-80
2023/01/10 01:23:27;;;;;;;1.80;0.40;;;9.80;70.00;9.60;96015.00;;;;5106479;28;20222;-81
2023/01/10 01:26:00;;;;;;;0.40;0.33;;;9.80;70.00;9.70;96028.00;;;;5103965;28;20249;-81
2023/01/10 01:28:31;;;;;;;0.33;0.33;;;9.80;70.10;9.70;96031.00;;;;5089480;28;20550;-81
2023/01/10 01:31:10;;;;;;;6.33;0.73;;;9.80;70.20;9.70;96026.00;;;;5079594;28;20223;-80
2023/01/10 01:33:42;;;;;;;3.07;0.60;;;9.80;70.20;9.70;96038.00;;;;5084312;28;21065;-80
2023/01/10 01:36:14;;;;;;;6.93;0.70;;;9.80;70.30;9.80;96034.00;;;;5084803;28;20187;-81
2023/01/10 01:38:43;;;;;;;9.40;1.00;;;9.80;70.30;9.80;96046.00;;;;5098243;28;20190;-81
2023/01/10 01:44:10;;;;;;;0.50;0.50;;;9.90;70.30;9.80;96055.00;;;;5083431;28;20649;-80
2023/01/10 01:46:39;;;;;;;0.93;0.53;;;9.90;70.30;9.80;96048.00;;;;5089061;28;20245;-80
2023/01/10 01:49:24;;;;;;;0.40;0.40;;;9.90;70.20;9.90;96061.00;;;;5089767;28;20196;-80
2023/01/10 01:52:01;;;;;;;0.23;0.23;;;10.00;70.30;9.90;96062.00;;;;5114472;22;20677;-80
2023/01/10 01:54:34;;;;;;;0.77;0.60;;;10.00;70.30;9.90;96066.00;;;;5111928;28;20295;-82
2023/01/10 01:57:17;;;;;;;1.40;0.43;;;10.00;70.30;9.90;96074.00;;;;5104940;28;20252;-82
2023/01/10 01:59:57;;;;;;;7.30;0.90;;;10.00;70.20;9.90;96083.00;;;;5102114;28;20215;-83
2023/01/10 02:02:31;;;;;;;0.60;0.50;;;10.00;70.20;9.90;96090.00;;;;5091558;28;20672;-82
2023/01/10 02:05:08;;;;;;;0.47;0.40;;;10.00;70.20;9.90;96096.00;;;;5080718;28;20207;-82
2023/01/10 02:07:45;;;;;;;4.40;0.73;;;10.00;70.20;9.90;96092.00;;;;5090960;28;20690;-83
2023/01/10 02:10:27;;;;;;;10.03;0.90;;;10.00;71.00;9.90;96096.00;;;;5088030;28;20219;-82
2023/01/10 02:15:48;;;;;;;0.93;0.40;;;10.10;70.40;10.00;96089.00;;;;5090700;28;20677;-82
2023/01/10 02:18:23;;;;;;;4.87;0.70;;;10.10;70.30;10.00;96090.00;;;;5089128;28;20328;-82
2023/01/10 02:21:31;;;;;;;0.50;0.40;;;10.10;70.20;10.00;96091.00;;;;5089574;28;20222;-80
2023/01/10 02:24:45;;;;;;;1.00;0.40;;;10.10;70.30;10.00;96104.00;;;;5093559;28;20282;-82
2023/01/10 02:31:00;;;;;;;2.30;0.57;;;10.10;70.20;10.10;96105.00;;;;5088650;28;20243;-82
2023/01/10 02:33:33;;;;;;;0.80;0.30;;;10.20;70.30;10.10;96115.00;;;;5092814;28;20219;-82
2023/01/10 02:36:31;;;;;;;11.33;0.87;;;10.20;70.20;10.10;96112.00;;;;5090018;28;20198;-82
2023/01/10 02:39:11;;;;;;;9.87;1.30;;;10.20;70.30;10.10;96100.00;;;;5094057;28;20191;-83
2023/01/10 02:41:46;;;;;;;1.40;0.53;;;10.20;70.30;10.10;96105.00;;;;5090540;28;20278;-82
2023/01/10 02:44:24;;;;;;;4.40;0.73;;;10.20;70.30;10.10;96109.00;;;;5089832;28;20199;-83
2023/01/10 02:46:52;;;;;;;0.40;0.40;;;10.20;70.20;10.10;96117.00;;;;5093339;28;20262;-81
2023/01/10 02:49:20;;;;;;;1.50;0.40;;;10.20;70.10;10.10;96126.00;;;;5089777;28;20298;-82
2023/01/10 02:51:47;;;;;;;0.63;0.63;;;10.20;70.10;10.10;96137.00;;;;5049836;28;1216091;-82
2023/01/10 02:54:21;;;;;;;1.77;0.53;;;10.20;70.10;10.10;96135.00;;;;5093413;28;20199;-83
2023/01/10 02:57:30;;;;;;;0.70;0.40;;;10.20;70.10;10.10;96138.00;;;;5091753;28;20260;-82
2023/01/10 03:00:13;;;;;;;0.30;0.30;;;10.20;70.20;10.10;96139.00;;;;5079659;28;20768;-82
2023/01/10 03:03:00;;;;;;;0.60;0.47;;;10.20;70.20;10.10;96144.00;;;;5089117;28;20728;-82
2023/01/10 03:05:50;;;;;;;3.87;0.60;;;10.20;70.30;10.10;96153.00;;;;5090417;28;20191;-83
2023/01/10 03:08:31;;;;;;;5.07;0.67;;;10.20;70.30;10.10;96153.00;;;;5090058;28;20211;-83
2023/01/10 03:11:01;;;;;;;0.30;0.30;;;10.20;70.30;10.00;96153.00;;;;5087037;28;20223;-83
2023/01/10 03:13:37;;;;;;;0.43;0.43;;;10.20;70.30;10.00;96156.00;;;;5091987;28;20269;-82
2023/01/10 03:16:12;;;;;;;0.50;0.50;;;10.20;70.30;10.00;96161.00;;;;5087776;28;20222;-82
2023/01/10 03:18:46;;;;;;;2.67;0.70;;;10.20;70.30;10.00;96165.00;;;;5088618;28;20191;-83
2023/01/10 03:21:19;;;;;;;2.97;0.60;;;10.10;70.50;10.00;96167.00;;;;5091108;28;20641;-83
2023/01/10 03:23:49;;;;;;;0.57;0.40;;;10.20;70.80;10.00;96167.00;;;;5090115;28;20207;-81
2023/01/10 03:26:23;;;;;;;4.33;0.77;;;10.10;70.90;10.00;96177.00;;;;5102645;28;20217;-83
2023/01/10 03:29:01;;;;;;;3.47;0.60;;;10.10;71.20;10.00;96182.00;;;;5086136;28;20241;-81
2023/01/10 03:31:36;;;;;;;2.50;0.57;;;10.10;71.40;10.00;96192.00;;;;5095480;28;20194;-82
2023/01/10 03:34:04;;;;;;;2.93;0.70;;;10.10;71.40;10.00;96194.00;;;;5091842;28;20234;-82
2023/01/10 03:36:45;;;;;;;12.43;1.90;;;10.10;71.60;9.90;96201.00;;;;5091010;28;20325;-81
2023/01/10 03:39:23;;;;;;;4.73;0.70;;;10.10;71.70;9.90;96206.00;;;;5095827;28;20243;-82
2023/01/10 03:42:02;;;;;;;0.60;0.50;;;10.10;71.70;9.90;96209.00;;;;5089907;28;20256;-82
2023/01/10 03:44:43;;;;;;;1.90;0.60;;;10.00;71.60;9.80;96214.00;;;;5089460;28;20227;-81
2023/01/10 03:47:22;;;;;;;0.53;0.53;;;10.00;71.50;9.80;96220.00;;;;5089473;28;20712;-83
2023/01/10 03:49:56;;;;;;;1.33;0.70;;;10.00;71.40;9.80;96222.00;;;;5097292;28;20249;-81
2023/01/10 03:52:26;;;;;;;3.10;0.60;;;9.90;71.40;9.80;96235.00;;;;5101941;28;20250;-80
2023/01/10 03:54:57;;;;;;;0.70;0.60;;;9.90;71.50;9.80;96242.00;;;;5087014;28;20279;-82
2023/01/10 03:57:26;;;;;;;0.40;0.40;;;9.90;71.50;9.80;96250.00;;;;5092756;28;20248;-83
2023/01/10 03:59:56;;;;;;;9.20;1.00;;;9.90;71.50;9.70;96249.00;;;;5094225;28;20690;-82
2023/01/10 04:02:27;;;;;;;0.50;0.50;;;9.90;71.60;9.70;96245.00;;;;5092640;28;20203;-80
2023/01/10 04:04:55;;;;;;;5.87;0.93;;;9.80;71.60;9.70;96253.00;;;;5090274;28;20195;-81
2023/01/10 04:07:25;;;;;;;3.37;0.50;;;9.80;71.60;9.60;96253.00;;;;5090935;28;20202;-82
2023/01/10 04:09:52;;;;;;;2.23;0.87;;;9.80;71.60;9.60;96254.00;;;;5091947;28;20223;-82
2023/01/10 04:12:20;;;;;;;2.40;0.80;;;9.80;72.40;9.60;96264.00;;;;5089597;28;20215;-82
2023/01/10 04:14:47;;;;;;;2.73;0.70;;;9.80;71.80;9.60;96265.00;;;;5101665;28;20237;-81
2023/01/10 04:17:17;;;;;;;4.60;0.90;;;9.80;71.90;9.60;96267.00;;;;5093484;28;20196;-82
2023/01/10 04:19:44;;;;;;;1.17;0.70;;;9.80;72.00;9.60;96276.00;;;;5073556;28;20693;-81
2023/01/10 04:22:14;;;;;;;2.40;0.50;;;9.70;72.00;9.60;96287.00;;;;5077188;28;20222;-82
2023/01/10 04:24:50;;;;;;;0.43;0.43;;;9.70;72.10;9.60;96278.00;;;;5096610;28;20218;-81
2023/01/10 04:27:17;;;;;;;4.47;0.70;;;9.70;72.00;9.60;96291.00;;;;5107659;28;20283;-83
2023/01/10 04:29:47;;;;;;;6.10;0.80;;;9.70;72.00;9.60;96292.00;;;;5091995;28;20231;-83
2023/01/10 04:32:14;;;;;;;2.50;0.60;;;9.70;72.00;9.60;96294.00;;;;5088583;28;20292;-81
2023/01/10 04:34:52;;;;;;;14.77;2.17;;;9.70;72.20;9.60;96310.00;;;;5091568;28;20198;-83
2023/01/10 04:37:23;;;;;;;3.23;0.80;;;9.70;72.30;9.60;96307.00;;;;5088128;28;20249;-83
2023/01/10 04:39:56;;;;;;;0.67;0.50;;;9.70;72.40;9.70;96321.00;;;;5088458;28;20272;-83
2023/01/10 04:42:29;;;;;;;5.93;0.70;;;9.70;72.50;9.70;96322.00;;;;5085893;28;20207;-81
2023/01/10 04:45:01;;;;;;;0.53;0.53;;;9.70;72.50;9.70;96332.00;;;;5091442;28;20574;-82
2023/01/10 04:47:38;;;;;;;0.70;0.70;;;9.70;72.50;9.70;96323.00;;;;5080619;28;20249;-83
2023/01/10 04:50:13;;;;;;;3.47;0.50;;;9.70;72.50;9.70;96321.00;;;;5094257;28;20226;-83
2023/01/10 04:52:43;;;;;;;9.90;1.27;;;9.70;72.50;9.70;96330.00;;;;5097661;28;20230;-82
2023/01/10 04:55:15;;;;;;;0.70;0.70;;;9.80;72.70;9.70;96335.00;;;;5088228;28;20231;-82
2023/01/10 04:57:45;;;;;;;1.17;0.70;;;9.80;72.80;9.80;96349.00;;;;5087881;28;20636;-83
2023/01/10 05:00:28;;;;;;;1.37;0.60;;;9.80;72.70;9.80;96353.00;;;;5089468;28;20238;-81
2023/01/10 05:03:04;;;;;;;3.07;0.70;;;9.80;72.70;9.80;96355.00;;;;5095100;28;20195;-82
2023/01/10 05:05:40;;;;;;;21.57;1.73;;;9.80;72.60;9.80;96360.00;;;;5089338;28;20191;-83
2023/01/10 05:08:13;;;;;;;3.30;1.13;;;9.90;72.70;9.80;96372.00;;;;5092917;28;20248;-80
2023/01/10 05:10:44;;;;;;;1.30;0.70;;;9.80;72.70;9.80;96372.00;;;;5085870;28;20239;-83
2023/01/10 05:13:21;;;;;;;1.60;0.60;;;9.90;72.70;9.80;96373.00;;;;5088827;28;20227;-82
2023/01/10 05:16:00;;;;;;;1.30;0.80;;;9.90;72.60;9.80;96380.00;;;;5087603;28;20206;-82
2023/01/10 05:18:32;;;;;;;0.60;0.60;;;9.90;72.50;9.80;96381.00;;;;5090171;28;20207;-83
2023/01/10 05:21:06;;;;;;;13.80;1.10;;;9.90;72.40;9.80;96392.00;;;;5091058;28;20276;-83
2023/01/10 05:23:35;;;;;;;4.80;0.80;;;9.90;72.50;9.70;96382.00;;;;5093116;28;20192;-83
2023/01/10 05:26:16;;;;;;;3.40;0.80;;;9.80;72.40;9.70;96383.00;;;;5097623;28;20218;-83
2023/01/10 05:28:44;;;;;;;1.40;0.80;;;9.80;72.50;9.70;96388.00;;;;5094486;28;20230;-82
2023/01/10 05:31:18;;;;;;;1.03;0.70;;;9.80;72.50;9.70;96388.00;;;;5091603;28;20241;-82
2023/01/10 05:33:51;;;;;;;0.70;0.70;;;9.80;72.50;9.70;96398.00;;;;5095930;28;20757;-82
2023/01/10 05:36:29;;;;;;;7.23;1.70;;;9.80;72.50;9.70;96404.00;;;;5103971;28;20182;-83
2023/01/10 05:39:20;;;;;;;0.60;0.60;;;9.80;72.80;9.70;96415.00;;;;5107176;28;20285;-81
2023/01/10 05:41:48;;;;;;;0.70;0.70;;;9.80;72.90;9.70;96420.00;;;;5094269;28;20364;-82
2023/01/10 05:44:22;;;;;;;4.67;0.97;;;9.80;72.80;9.70;96422.00;;;;5093960;28;20219;-82
2023/01/10 05:46:49;;;;;;;0.70;0.70;;;9.80;72.90;9.70;96423.00;;;;5093877;28;20282;-82
2023/01/10 05:49:16;;;;;;;1.00;1.00;;;9.80;72.90;9.60;96424.00;;;;5095819;28;20757;-82
2023/01/10 05:51:43;;;;;;;10.87;1.27;;;9.80;72.90;9.60;96434.00;;;;5092863;28;20652;-81
2023/01/10 05:54:10;;;;;;;3.53;1.10;;;9.70;72.80;9.60;96437.00;;;;5094785;28;20254;-82
2023/01/10 05:56:42;;;;;;;0.77;0.77;;;9.70;73.10;9.60;96443.00;;;;5095193;28;20619;-82
2023/01/10 05:59:11;;;;;;;1.37;0.60;;;9.70;73.30;9.60;96457.00;;;;5093624;28;20270;-80
2023/01/10 06:01:38;;;;;;;2.37;0.93;;;9.80;73.50;9.60;96455.00;;;;5096311;28;20253;-82
2023/01/10 06:04:11;;;;;;;1.83;1.00;;;9.70;73.50;9.60;96461.00;;;;5096056;28;20225;-79
2023/01/10 06:06:46;;;;;;;0.80;0.77;;;9.70;73.70;9.60;96469.00;;;;5103079;28;20199;-83
2023/01/10 06:09:21;;;;;;;6.13;1.10;;;9.70;73.80;9.70;96475.00;;;;5095930;28;20232;-83
2023/01/10 06:11:48;;;;;;;0.70;0.70;;;9.80;74.00;9.70;96488.00;;;;5096144;28;20221;-83
2023/01/10 06:14:18;;;;;;;2.27;0.80;;;9.70;73.90;9.70;96486.00;;;;5095000;28;20228;-83
2023/01/10 06:16:45;;;;;;;0.70;0.70;;;9.70;73.80;9.60;96493.00;;;;5094723;28;20236;-83
2023/01/10 06:19:13;;;;;;;1.80;0.80;;;9.80;73.90;9.60;96502.00;;;;5099163;28;20671;-80
2023/01/10 06:21:41;;;;;;;0.77;0.60;;;9.70;73.80;9.60;96512.00;;;;5099747;28;20214;-82
2023/01/10 06:24:09;;;;;;;7.00;1.03;;;9.70;73.80;9.60;96512.00;;;;5102884;28;20920;-81
2023/01/10 06:26:36;;;;;;;0.77;0.77;;;9.70;73.70;9.60;96519.00;;;;5108624;28;20573;-81
2023/01/10 06:29:04;;;;;;;9.63;1.00;;;9.70;73.60;9.60;96519.00;;;;5100783;28;20195;-81
2023/01/10 06:31:35;;;;;;;0.70;0.70;;;9.70;73.60;9.60;96534.00;;;;5113510;28;20254;-80
2023/01/10 06:34:02;;;;;;;5.57;1.20;;;9.70;73.60;9.60;96540.00;;;;5097750;28;20242;-79
2023/01/10 06:36:34;;;;;;;0.93;0.90;;;9.70;73.60;9.60;96546.00;;;;5097808;28;20613;-81
2023/01/10 06:39:09;;;;;;;0.70;0.70;;;9.70;73.70;9.60;96545.00;;;;5097276;28;20192;-82
2023/01/10 06:41:37;;;;;;;0.80;0.80;;;9.70;73.70;9.60;96550.00;;;;5097340;28;20240;-85
2023/01/10 06:44:04;;;;;;;2.43;0.80;;;9.70;73.60;9.60;96559.00;;;;5094204;28;20260;-84
2023/01/10 06:46:32;;;;;;;0.93;0.80;;;9.70;73.70;9.60;96567.00;;;;5094289;28;20199;-85
2023/01/10 06:49:00;;;;;;;4.30;1.07;;;9.70;73.70;9.70;96580.00;;;;5094072;28;20283;-84
2023/01/10 06:51:27;;;;;;;2.43;0.90;;;9.70;73.80;9.70;96580.00;;;;5094100;28;20571;-82
2023/01/10 06:53:54;;;;;;;0.90;0.77;;;9.70;73.70;9.70;96582.00;;;;5088033;28;20307;-85
2023/01/10 06:56:24;;;;;;;2.43;0.80;;;9.70;73.70;9.80;96581.00;;;;5073466;28;20644;-83
2023/01/10 06:58:51;;;;;;;5.10;1.37;;;9.80;73.60;9.80;96591.00;;;;5074358;28;20211;-84
2023/01/10 07:01:21;;;;;;;0.90;0.80;;;9.80;73.50;9.80;96608.00;;;;5073687;28;20852;-84
2023/01/10 07:03:50;;;;;;;2.23;0.60;;;9.80;73.40;9.80;96610.00;;;;5073750;28;20200;-84
2023/01/10 07:06:23;;;;;;;2.90;0.80;;;9.80;73.30;9.80;96611.00;;;;5092872;28;20200;-84
2023/01/10 07:08:51;;;;;;;7.33;0.90;;;9.90;73.30;9.80;96616.00;;;;5094171;28;20246;-84
2023/01/10 07:11:19;;;;;;;0.50;0.50;;;9.80;73.10;9.80;96623.00;;;;5093698;28;20199;-84
2023/01/10 07:13:47;;;;;;;0.57;0.57;;;9.90;73.10;9.80;96627.00;;;;5094000;28;20251;-83
2023/01/10 07:16:16;;;;;;;0.60;0.60;;;9.90;73.00;9.80;96628.00;;;;5094162;28;20199;-83
2023/01/10 07:18:46;;;;;;;0.60;0.60;;;9.80;72.80;9.80;96641.00;;;;5094260;28;20256;-84
2023/01/10 07:21:18;;;;;;;2.30;0.70;;;9.80;72.70;9.70;96636.00;;;;5094056;28;20237;-83
2023/01/10 07:23:48;;;;;;;0.63;0.63;;;9.80;72.60;9.70;96652.00;;;;5093833;28;20191;-83
2023/01/10 07:26:17;;;;;;;0.70;0.70;;;9.80;72.50;9.70;96660.00;;;;5094127;28;20289;-83
2023/01/10 07:28:45;;;;;;;2.20;0.90;;;9.80;72.50;9.70;96661.00;;;;5094347;28;20192;-84
2023/01/10 07:31:13;;;;;;;0.73;0.73;;;9.80;73.10;9.70;96672.00;;;;5093663;28;20272;-84
2023/01/10 07:33:42;;;;;;;0.90;0.90;;;9.70;72.40;9.60;96681.00;;;;5093036;28;20652;-84
2023/01/10 07:36:10;;;;;;;5.67;0.97;;;9.80;72.50;9.60;96679.00;;;;5093706;28;20244;-84
2023/01/10 07:38:39;;;;;;;1.50;0.70;;;9.70;72.50;9.60;96691.00;;;;5093694;28;20715;-84
2023/01/10 07:41:11;;;;;;;0.73;0.60;;;9.70;72.60;9.60;96705.00;;;;5093070;28;20243;-84
2023/01/10 07:43:40;;;;;;;0.57;0.57;;;9.70;72.50;9.60;96718.00;;;;5103239;28;20233;-84
2023/01/10 07:46:11;;;;;;;1.27;1.00;;;9.70;72.60;9.70;96719.00;;;;5113054;28;20203;-84
2023/01/10 07:48:41;;;;;;;0.83;0.80;;;9.70;72.60;9.70;96726.00;;;;5113396;28;20183;-84
2023/01/10 07:51:09;;;;;;;6.67;0.90;;;9.70;72.60;9.70;96732.00;;;;5112929;28;20222;-84
2023/01/10 07:53:38;;;;;;;0.90;0.67;;;9.70;72.60;9.70;96734.00;;;;5112781;28;20295;-84
2023/01/10 07:56:06;;;;;;;1.87;0.70;;;9.70;72.60;9.70;96731.00;;;;5113597;28;20617;-84
2023/01/10 07:58:35;;;;;;;2.43;0.83;;;9.70;72.70;9.70;96742.00;;;;5112518;28;20251;-84
2023/01/10 08:01:05;;;;;;;1.63;0.70;;;9.70;72.70;9.80;96753.00;;;;5111169;28;20218;-84
2023/01/10 08:03:33;;;;;;;3.50;0.80;;;9.80;72.90;9.80;96759.00;;;;5112896;28;20191;-84
2023/01/10 08:06:01;;;;;;;4.50;0.93;;;9.80;72.70;9.80;96761.00;;;;5113004;28;20211;-84
2023/01/10 08:08:32;;;;;;;8.23;1.40;;;9.80;72.70;9.80;96755.00;;;;5112692;28;20226;-84
2023/01/10 08:11:03;;;;;;;0.80;0.80;;;9.80;72.70;9.80;96756.00;;;;5112890;28;20267;-84
2023/01/10 08:13:31;;;;;;;2.07;0.93;;;9.80;72.60;9.80;96761.00;;;;5112999;28;20231;-84
2023/01/10 08:16:02;;;;;;;3.20;1.00;;;9.80;72.50;9.80;96765.00;;;;5113138;28;20222;-84
2023/01/10 08:18:32;;;;;;;4.47;0.93;;;9.80;72.50;9.80;96775.00;;;;5113484;28;20186;-84
2023/01/10 08:21:09;;;;;;;1.97;1.00;;;9.80;72.50;9.90;96788.00;;;;5112849;28;20267;-84
2023/01/10 08:23:36;;;;;;;1.30;1.20;;;9.90;72.60;9.80;96786.00;;;;5113310;28;20226;-84
2023/01/10 08:26:07;;;;;;;1.27;1.00;;;9.90;72.60;9.90;96793.00;;;;5112913;28;20275;-83
2023/01/10 08:28:35;;;;;;;1.43;0.90;;;9.90;72.90;9.90;96795.00;;;;5113450;28;20191;-84
2023/01/10 08:31:13;;;;;;;4.10;1.20;;;9.90;72.50;9.90;96798.00;;;;5112715;28;20256;-84
2023/01/10 08:33:41;;;;;;;1.20;1.13;;;9.90;72.50;9.80;96797.00;;;;5112204;28;20302;-84
2023/01/10 08:36:18;;;;;;;2.20;1.00;;;9.90;72.50;9.90;96801.00;;;;5112427;28;20255;-84
2023/01/10 08:38:46;;;;;;;1.77;1.10;;;9.90;72.60;9.90;96802.00;;;;5112692;28;20202;-84
2023/01/10 08:41:20;;;;;;;0.90;0.90;;;9.90;72.50;9.90;96811.00;;;;5112825;28;20228;-84
2023/01/10 08:43:50;;;;;;;8.60;1.30;;;9.90;72.50;9.90;96820.00;;;;5111232;28;20283;-83
2023/01/10 08:46:18;;;;;;;0.90;0.90;;;9.90;72.50;9.90;96817.00;;;;5112821;28;20520;-84
2023/01/10 08:48:47;;;;;;;1.00;0.90;;;10.00;72.60;10.00;96814.00;;;;5109824;28;20552;-83
2023/01/10 08:51:14;;;;;;;2.47;0.90;;;10.00;72.60;10.00;96817.00;;;;5110032;28;20229;-85
2023/01/10 08:53:42;;;;;;;3.20;1.10;;;10.00;72.50;10.00;96819.00;;;;5107964;28;20268;-84
2023/01/10 08:56:10;;;;;;;1.73;0.90;;;10.00;72.40;10.10;96826.00;;;;5111482;28;20199;-84
2023/01/10 08:58:40;;;;;;;5.13;0.97;;;10.10;72.40;10.10;96833.00;;;;5111102;28;20258;-84
2023/01/10 09:01:10;;;;;;;1.73;0.87;;;10.10;72.20;10.10;96833.00;;;;5112100;28;20686;-84
2023/01/10 09:03:38;;;;;;;1.57;0.97;;;10.10;72.20;10.20;96842.00;;;;5111859;28;20206;-84
2023/01/10 09:06:09;;;;;;;0.80;0.73;;;10.10;72.10;10.20;96838.00;;;;5112431;28;20659;-84
2023/01/10 09:08:37;;;;;;;1.13;0.80;;;10.20;72.00;10.20;96842.00;;;;5112875;28;20222;-83
2023/01/10 09:11:06;;;;;;;2.30;1.07;;;10.20;71.90;10.20;96851.00;;;;5112716;28;20636;-84
2023/01/10 09:13:34;;;;;;;1.17;0.90;;;10.20;71.80;10.20;96861.00;;;;5112151;28;20234;-84
2023/01/10 09:16:05;;;;;;;0.80;0.80;;;10.20;71.60;10.20;96867.00;;;;5112571;28;20195;-84
2023/01/10 09:18:33;;;;;;;0.93;0.80;;;10.20;71.50;10.30;96865.00;;;;5112681;28;20600;-84
2023/01/10 09:21:02;;;;;;;1.17;0.70;;;10.20;71.40;10.30;96864.00;;;;5111198;28;20329;-84
2023/01/10 09:23:29;;;;;;;2.07;0.83;;;10.30;71.40;10.30;96869.00;;;;5112063;28;20241;-84
2023/01/10 09:25:57;;;;;;;1.37;0.87;;;10.30;71.40;10.30;96876.00;;;;5112317;28;20199;-84
2023/01/10 09:28:25;;;;;;;1.77;0.70;;;10.30;71.30;10.30;96887.00;;;;5112022;28;20207;-83
2023/01/10 09:30:53;;;;;;;7.50;1.30;;;10.30;71.20;10.30;96883.00;;;;5112055;28;20223;-84
2023/01/10 09:33:22;;;;;;;2.27;1.00;;;10.30;71.10;10.40;96898.00;;;;5112242;28;20191;-84
2023/01/10 09:35:49;;;;;;;27.73;1.80;;;10.40;71.30;10.40;96905.00;;;;5112226;28;20287;-84
2023/01/10 09:38:21;;;;;;;5.97;1.40;;;10.40;71.20;10.40;96906.00;;;;5112410;28;20651;-84
2023/01/10 09:41:27;;;;;;;1.27;1.10;;;10.40;71.20;10.50;96909.00;;;;5112314;28;20210;-84
2023/01/10 09:44:04;;;;;;;1.90;1.60;;;10.40;71.00;10.50;96909.00;;;;5085720;28;20203;-84
2023/01/10 09:46:47;;;;;;;1.90;1.47;;;10.50;71.00;10.50;96905.00;;;;5112351;28;20263;-84
2023/01/10 09:49:30;;;;;;;1.07;1.00;;;10.50;71.00;10.50;96920.00;;;;5111698;28;20263;-84
2023/01/10 09:52:07;;;;;;;1.07;0.93;;;10.50;70.90;10.50;96917.00;;;;5112644;28;20644;-84
2023/01/10 09:54:41;;;;;;;2.67;0.93;;;10.50;70.90;10.50;96925.00;;;;5111930;28;20279;-84
2023/01/10 09:57:18;;;;;;;1.47;1.07;;;10.50;70.80;10.50;96923.00;;;;5111962;28;20229;-84
2023/01/10 09:59:49;;;;;;;1.07;0.90;;;10.60;70.90;10.50;96922.00;;;;5100501;28;20211;-84
2023/01/10 10:02:29;;;;;;;1.43;0.90;;;10.50;70.80;10.50;96920.00;;;;5091072;28;20179;-84
2023/01/10 10:05:13;;;;;;;1.30;0.97;;;10.60;71.40;10.50;96932.00;;;;5091177;28;20184;-84
2023/01/10 10:07:40;;;;;;;1.00;0.80;;;10.60;70.20;10.50;96940.00;;;;5081007;28;20184;-84
2023/01/10 10:10:18;;;;;;;2.40;0.90;;;10.60;70.10;10.40;96941.00;;;;5074741;28;20243;-84
2023/01/10 10:13:09;;;;;;;0.90;0.90;;;10.50;69.90;10.40;96935.00;;;;5074528;28;20237;-84
2023/01/10 10:15:51;;;;;;;10.27;1.67;;;10.50;69.80;10.40;96930.00;;;;5073247;28;20300;-84
2023/01/10 10:18:32;;;;;;;3.90;1.00;;;10.50;69.90;10.40;96926.00;;;;5075277;28;20180;-84
2023/01/10 10:21:08;;;;;;;3.60;1.30;;;10.50;70.00;10.40;96928.00;;;;5074593;28;20212;-84
2023/01/10 10:24:07;;;;;;;2.40;0.87;;;10.50;69.90;10.40;96931.00;;;;5074710;28;20280;-84
2023/01/10 10:26:40;;;;;;;3.03;0.90;;;10.50;69.60;10.40;96927.00;;;;5054323;28;20211;-84
2023/01/10 10:29:55;;;;;;;4.20;1.17;;;10.50;69.90;10.40;96921.00;;;;5074551;28;20184;-84
2023/01/10 10:32:56;;;;;;;1.37;0.90;;;10.50;69.70;10.50;96916.00;;;;5074425;28;20211;-84
2023/01/10 10:35:30;;;;;;;3.50;1.03;;;10.50;69.60;10.50;96913.00;;;;5073831;28;20204;-83
2023/01/10 10:38:08;;;;;;;1.07;0.70;;;10.50;69.80;10.50;96914.00;;;;5073967;28;20266;-84
2023/01/10 10:40:42;;;;;;;1.53;0.90;;;10.50;69.80;10.50;96924.00;;;;5073867;28;20250;-84
2023/01/10 10:43:20;;;;;;;14.17;1.73;;;10.50;69.80;10.60;96926.00;;;;5074132;28;20177;-83
2023/01/10 10:45:54;;;;;;;1.70;1.00;;;10.60;70.00;10.60;96922.00;;;;5073682;28;20207;-84
2023/01/10 10:48:27;;;;;;;1.40;1.20;;;10.60;70.00;10.70;96916.00;;;;5073994;28;20231;-84
2023/01/10 10:51:07;;;;;;;1.57;1.33;;;10.60;69.90;10.70;96900.00;;;;5073853;28;20744;-84
2023/01/10 10:53:36;;;;;;;1.30;1.17;;;10.60;69.80;10.70;96908.00;;;;5073852;28;20207;-84
2023/01/10 10:56:06;;;;;;;1.87;1.00;;;10.70;69.90;10.70;96911.00;;;;5073707;28;20265;-84
2023/01/10 10:58:34;;;;;;;0.90;0.70;;;10.70;69.80;10.80;96918.00;;;;5074415;28;20213;-84
2023/01/10 11:01:01;;;;;;;2.83;1.33;;;10.70;69.70;10.80;96911.00;;;;5074408;28;20667;-84
2023/01/10 11:03:42;;;;;;;2.20;1.23;;;10.70;70.30;10.80;96927.00;;;;5075024;28;20219;-83
2023/01/10 11:06:11;;;;;;;3.30;1.40;;;10.80;69.60;10.90;96913.00;;;;5074889;28;20203;-83
2023/01/10 11:08:46;;;;;;;4.73;1.10;;;10.80;69.60;10.90;96928.00;;;;5074892;28;20227;-84
2023/01/10 11:11:20;;;;;;;3.13;1.10;;;10.80;69.60;10.90;96922.00;;;;5075069;28;20215;-85
2023/01/10 11:13:54;;;;;;;2.07;0.87;;;10.80;69.40;11.00;96919.00;;;;5074512;28;20219;-84
2023/01/10 11:16:29;;;;;;;1.17;0.77;;;10.90;69.30;11.00;96941.00;;;;5073120;28;20277;-83
2023/01/10 11:19:18;;;;;;;1.67;0.93;;;10.90;69.20;11.10;96940.00;;;;5072721;28;20683;-84
2023/01/10 11:21:55;;;;;;;5.33;1.13;;;11.00;68.80;11.10;96949.00;;;;5073504;28;20818;-84
2023/01/10 11:24:29;;;;;;;5.17;1.20;;;11.00;69.00;11.10;96945.00;;;;5073280;28;20184;-84
2023/01/10 11:27:01;;;;;;;1.40;0.93;;;11.00;69.00;11.10;96946.00;;;;5073514;28;20203;-84
2023/01/10 11:29:39;;;;;;;2.00;1.17;;;11.00;68.80;11.10;96952.00;;;;5073719;28;20568;-84
2023/01/10 11:32:14;;;;;;;4.93;1.07;;;11.10;68.30;11.10;96946.00;;;;5073637;28;20196;-83
2023/01/10 11:34:57;;;;;;;2.27;1.00;;;11.10;68.20;11.10;96965.00;;;;5073482;28;20238;-83
2023/01/10 11:37:31;;;;;;;4.70;1.13;;;11.10;68.20;11.10;96962.00;;;;5073079;28;20680;-84
2023/01/10 11:40:25;;;;;;;6.37;1.40;;;11.10;68.30;11.20;96967.00;;;;5073494;28;20281;-84
2023/01/10 11:42:57;;;;;;;1.67;0.87;;;11.10;67.80;11.20;96972.00;;;;5073473;28;20222;-84